Terminal Aerodrome Forecast
Issued by NWS

Home | Current Version | Previous Version | Text Only | Print | Product List | Glossary On
Versions: 1 2 3 4 5 6 7 8 9 10 11 12 13 14 15 16 17
000
FTUS42 KTAE 241120
TAFDHN
TAF
KDHN 241120Z 2412/2512 15004KT 4SM BR SCT020
      TEMPO 2412/2413 1/2SM FG OVC002
     FM241500 18010KT P6SM SCT040
     FM250600 19006KT 6SM BR BKN020=

USA.gov is the U.S. government's official web portal to all federal, state and local government web resources and services.